Schofer, Pennsylvania
Current Conditions -  °F | °C
As of 10:54 PM on Saturday 24 Jan 2015 (Local Time) from KRDG Reporting Station
Overcast Overcast  
Wind Chill: 25°   Ceiling: 3000
Heat Index: 34°   Visibility: 10mi
Dew Point: 24°   Wind: 12mph
Humidity: 67%   Direction: 290°WNW
Pressure: 29.56"   Gusts: NA
Location:  40.5336°N, 75.7775°W
Report Text: KRDG 250354Z AUTO 29010KT 10SM OVC030 01/M04 A2956 RMK AO2 SLP018 T00111044
Loading
Personal Weather Stations






























Interactive Weather Map New forecast layout! Learn more

10-Day Weather Forecast

Advertisements
Track Severe Weather on mobile